.
WxDataArchive / Data Records for 2016-06-02
2016-06-01 June 2016 2016-06-03

Data Records for Thursday, 02 June 2016

Time	Temp	Chill	HIndex	Humid	Dewpt	 Wind 	HiWind	WindDir	Rain 	Barom
-----	----	-----	------	-----	-----	------	------	-------	-----	-----
00:00	66.9	66.9	66.9	86	62.6	0	0	---	0.00	29.900 
00:05	66.8	66.8	66.8	86	62.5	0	0	---	0.00	29.900 
00:10	66.8	66.8	66.8	87	62.8	0	0	---	0.00	29.900 
00:15	66.6	66.6	66.6	87	62.6	0	0	---	0.00	29.900 
00:20	66.6	66.6	66.6	88	62.9	0	0	---	0.00	29.900 
00:25	66.6	66.6	66.6	88	62.9	0	0	---	0.00	29.900 
00:30	66.4	66.4	66.4	88	62.7	0	0	---	0.00	29.908 
00:35	66.4	66.4	66.4	88	62.7	0	0	---	0.00	29.908 
00:40	66.4	66.4	66.4	88	62.7	0	0	---	0.00	29.908 
00:45	66.3	66.3	66.3	88	62.6	0	0	---	0.00	29.915 
00:50	66.3	66.3	66.3	88	62.6	0	0	---	0.00	29.915 
00:55	66.1	66.1	66.1	88	62.4	0	0	---	0.00	29.915 
01:00	66.1	66.1	66.1	88	62.4	0	0	---	0.00	29.913 
01:05	66.0	66.0	66.0	89	62.7	0	0	---	0.00	29.913 
01:10	65.8	65.8	65.8	89	62.5	0	0	---	0.00	29.913 
01:15	65.8	65.8	65.8	89	62.5	0	0	---	0.00	29.912 
01:20	65.6	65.6	65.6	89	62.3	0	0	---	0.00	29.912 
01:25	65.6	65.6	65.6	89	62.3	0	0	---	0.00	29.912 
01:30	65.6	65.6	65.6	89	62.3	0	0	---	0.00	29.906 
01:35	65.5	65.5	65.5	89	62.2	0	0	---	0.00	29.906 
01:40	65.5	65.5	65.5	89	62.2	0	0	---	0.00	29.906 
01:45	65.3	65.3	65.3	89	62.0	0	0	---	0.00	29.908 
01:50	65.5	65.5	65.5	90	62.5	0	0	---	0.00	29.908 
01:55	65.5	65.5	65.5	90	62.5	0	0	---	0.00	29.908 
02:00	65.5	65.5	65.5	90	62.5	0	0	---	0.00	29.902 
02:05	65.5	65.5	65.5	90	62.5	0	0	---	0.00	29.902 
02:10	65.5	65.5	65.5	90	62.5	0	0	---	0.00	29.902 
02:15	65.5	65.5	65.5	90	62.5	0	0	---	0.00	29.904 
02:20	65.5	65.5	65.5	90	62.5	0	0	---	0.00	29.904 
02:25	65.5	65.5	65.5	90	62.5	0	0	---	0.00	29.904 
02:30	65.3	65.3	65.3	90	62.3	0	0	---	0.00	29.900 
02:35	65.3	65.3	65.3	90	62.3	0	0	---	0.00	29.900 
02:40	65.3	65.3	65.3	90	62.3	0	0	---	0.00	29.900 
02:45	65.3	65.3	65.3	90	62.3	0	0	---	0.00	29.902 
02:50	65.3	65.3	65.3	90	62.3	0	0	---	0.00	29.902 
02:55	65.3	65.3	65.3	90	62.3	0	0	---	0.00	29.902 
03:00	65.2	65.2	65.2	90	62.2	0	0	---	0.00	29.903 
03:05	65.3	65.3	65.3	90	62.3	0	0	---	0.00	29.903 
03:10	65.3	65.3	65.3	90	62.3	0	0	---	0.00	29.903 
03:15	65.3	65.3	65.3	90	62.3	0	0	---	0.00	29.906 
03:20	65.5	65.5	65.5	91	62.8	0	0	---	0.00	29.906 
03:25	65.6	65.6	65.6	91	62.9	0	0	---	0.00	29.906 
03:30	66.0	66.0	66.0	91	63.3	0	0	---	0.00	29.908 
03:35	66.1	66.1	66.1	90	63.1	0	1	292	0.00	29.908 
03:40	66.3	66.3	66.3	90	63.3	0	1	292	0.00	29.908 
03:45	66.4	66.4	66.4	90	63.4	0	0	---	0.00	29.906 
03:50	66.4	66.4	66.4	89	63.1	0	0	---	0.00	29.906 
03:55	66.4	66.4	66.4	89	63.1	0	0	---	0.00	29.906 
04:00	66.3	66.3	66.3	89	63.0	0	0	---	0.00	29.908 
04:05	66.3	66.3	66.3	89	63.0	0	0	---	0.00	29.908 
04:10	66.1	66.1	66.1	89	62.8	0	0	---	0.00	29.908 
04:15	66.1	66.1	66.1	89	62.8	0	0	---	0.00	29.910 
04:20	66.0	66.0	66.0	89	62.7	0	0	---	0.00	29.910 
04:25	65.8	65.8	65.8	89	62.5	0	0	---	0.00	29.910 
04:30	65.8	65.8	65.8	89	62.5	0	0	---	0.00	29.910 
04:35	65.6	65.6	65.6	89	62.3	0	0	---	0.00	29.910 
04:40	65.6	65.6	65.6	90	62.6	0	0	---	0.00	29.910 
04:45	65.5	65.5	65.5	90	62.5	0	0	---	0.00	29.912 
04:50	65.5	65.5	65.5	90	62.5	0	0	---	0.00	29.912 
04:55	65.3	65.3	65.3	90	62.3	0	0	---	0.00	29.912 
05:00	65.2	65.2	65.2	90	62.2	0	0	---	0.00	29.916 
05:05	65.0	65.0	65.0	90	62.0	0	0	---	0.00	29.916 
05:10	65.0	65.0	65.0	91	62.3	0	0	---	0.00	29.916 
05:15	65.0	65.0	65.0	91	62.3	0	0	---	0.00	29.917 
05:20	65.0	65.0	65.0	91	62.3	0	0	---	0.00	29.917 
05:25	65.0	65.0	65.0	91	62.3	0	0	---	0.00	29.917 
05:30	65.0	65.0	65.0	92	62.6	0	0	---	0.00	29.924 
05:35	65.0	65.0	65.0	92	62.6	0	0	---	0.00	29.924 
05:40	65.0	65.0	65.0	92	62.6	0	0	---	0.00	29.924 
05:45	65.2	65.2	65.2	92	62.8	0	0	---	0.00	29.926 
05:50	65.3	65.3	65.3	92	62.9	0	0	---	0.00	29.926 
05:55	65.5	65.5	65.5	92	63.1	0	0	---	0.00	29.926 
06:00	65.6	65.6	65.6	92	63.2	0	1	292	0.00	29.937 
06:05	65.8	65.8	65.8	92	63.4	0	1	292	0.00	29.937 
06:10	66.0	66.0	66.0	92	63.6	0	2	292	0.00	29.937 
06:15	66.0	66.0	66.0	92	63.6	0	2	292	0.00	29.940 
06:20	66.1	66.1	66.1	92	63.7	0	2	292	0.00	29.940 
06:25	66.1	66.1	66.1	92	63.7	0	1	292	0.00	29.940 
06:30	66.1	66.1	66.1	92	63.7	1	3	292	0.00	29.945 
06:35	66.1	66.1	66.1	92	63.7	0	2	292	0.00	29.945 
06:40	66.0	66.0	66.0	91	63.3	0	2	292	0.00	29.945 
06:45	66.0	66.0	66.0	91	63.3	0	2	292	0.00	29.948 
06:50	65.8	65.8	65.8	90	62.8	1	4	292	0.00	29.948 
06:55	66.0	66.0	66.0	89	62.7	0	2	292	0.00	29.948 
07:00	66.0	66.0	66.0	88	62.3	0	4	292	0.00	29.952 
07:05	66.0	66.0	66.0	87	62.0	0	2	292	0.00	29.952 
07:10	66.1	66.1	66.1	86	61.8	1	3	292	0.00	29.952 
07:15	66.1	66.1	66.1	85	61.5	0	3	292	0.00	29.952 
07:20	66.3	66.3	66.3	84	61.3	0	2	292	0.00	29.952 
07:25	66.4	66.4	66.4	83	61.1	0	2	292	0.00	29.952 
07:30	66.4	66.4	66.4	83	61.1	0	1	292	0.00	29.956 
07:35	66.6	66.6	66.6	82	60.9	0	2	292	0.00	29.956 
07:40	66.8	66.8	66.8	81	60.8	0	2	292	0.00	29.956 
07:45	66.9	66.9	66.9	81	60.9	1	3	292	0.00	29.963 
07:50	67.3	67.3	67.3	80	60.9	0	2	292	0.00	29.963 
07:55	67.3	67.3	67.3	79	60.6	0	1	292	0.00	29.963 
08:00	67.4	67.4	67.4	78	60.3	0	1	292	0.00	29.968 
08:05	67.6	67.6	67.6	77	60.1	0	3	292	0.00	29.968 
08:10	67.6	67.6	67.6	75	59.4	0	2	292	0.00	29.968 
08:15	67.8	67.8	67.8	74	59.2	0	3	292	0.00	29.969 
08:20	68.1	68.1	68.1	73	59.1	0	2	292	0.00	29.969 
08:25	68.6	68.6	68.6	72	59.2	0	2	292	0.00	29.969 
08:30	69.1	69.1	69.1	69	58.5	1	4	292	0.00	29.973 
08:35	69.4	69.4	69.4	68	58.4	1	4	292	0.00	29.973 
08:40	69.8	69.8	69.8	66	57.9	1	5	292	0.00	29.973 
08:45	70.3	70.3	70.3	67	58.8	0	3	292	0.00	29.977 
08:50	70.6	70.6	70.6	65	58.2	1	3	292	0.00	29.977 
08:55	70.9	70.9	70.9	63	57.7	1	3	292	0.00	29.977 
09:00	71.3	71.3	71.3	60	56.7	1	3	292	0.00	29.983 
09:05	71.5	71.5	71.5	57	55.5	1	4	292	0.00	29.983 
09:10	71.6	71.6	71.6	57	55.5	1	3	292	0.00	29.983 
09:15	71.8	71.8	71.8	55	54.7	0	2	292	0.00	29.985 
09:20	72.5	72.5	72.5	56	55.9	0	3	292	0.00	29.985 
09:25	72.8	72.8	72.8	54	55.2	0	2	292	0.00	29.985 
09:30	73.2	73.2	73.2	52	54.5	0	3	292	0.00	29.984 
09:35	73.5	73.5	73.5	53	55.3	0	2	292	0.00	29.984 
09:40	74.0	74.0	74.0	53	55.8	0	2	292	0.00	29.984 
09:45	74.4	74.4	74.4	48	53.4	1	2	292	0.00	29.985 
09:50	74.4	74.4	74.4	47	52.8	1	4	315	0.00	29.985 
09:55	74.6	74.6	74.6	44	51.2	1	3	315	0.00	29.985 
10:00	74.7	74.7	74.7	42	50.1	1	3	315	0.00	29.984 
10:05	75.1	75.1	77.6	41	49.8	1	3	315	0.00	29.984 
10:10	75.4	75.4	77.7	43	51.3	0	2	315	0.00	29.984 
10:15	75.8	75.8	77.8	42	51.1	1	3	315	0.00	29.988 
10:20	76.0	76.0	77.8	39	49.2	1	4	315	0.00	29.988 
10:25	75.8	75.8	77.8	42	51.1	1	3	292	0.00	29.988 
10:30	75.8	75.8	77.8	43	51.7	1	6	292	0.00	29.985 
10:35	75.6	75.6	77.8	43	51.5	1	4	292	0.00	29.985 
10:40	75.8	75.8	77.9	44	52.3	1	3	292	0.00	29.985 
10:45	76.1	76.1	77.9	41	50.7	1	3	292	0.00	29.985 
10:50	76.5	76.5	78.2	44	52.9	1	4	292	0.00	29.985 
10:55	76.7	76.7	78.1	41	51.2	1	3	292	0.00	29.985 
11:00	76.8	76.8	78.3	43	52.6	1	4	292	0.00	29.984 
11:05	77.2	77.2	78.3	39	50.3	0	3	292	0.00	29.984 
11:10	76.8	76.8	78.0	38	49.2	1	4	292	0.00	29.984 
11:15	76.7	76.7	78.1	40	50.5	1	4	292	0.00	29.987 
11:20	76.8	76.8	78.2	41	51.3	0	2	292	0.00	29.987 
11:25	77.0	77.0	78.1	38	49.4	1	4	292	0.00	29.987 
11:30	77.6	77.6	78.6	42	52.7	0	3	292	0.00	29.986 
11:35	77.9	77.9	78.5	37	49.5	1	3	292	0.00	29.986 
11:40	78.1	78.1	78.7	38	50.4	1	5	292	0.00	29.986 
11:45	78.1	78.1	78.4	34	47.4	2	4	292	0.00	29.990 
11:50	77.9	77.9	78.3	34	47.2	2	4	292	0.00	29.990 
11:55	78.1	78.1	78.6	37	49.7	1	4	292	0.00	29.990 
12:00	78.1	78.1	78.5	35	48.2	2	4	292	0.00	29.993 
12:05	77.9	77.9	78.4	36	48.8	2	4	292	0.00	29.993 
12:10	77.7	77.7	78.3	36	48.6	2	5	292	0.00	29.993 
12:15	77.4	77.4	78.1	35	47.6	2	5	292	0.00	30.000 
12:20	77.6	77.6	78.3	36	48.5	2	5	292	0.00	30.000 
12:25	77.7	77.7	78.4	37	49.3	0	2	292	0.00	30.000 
12:30	78.3	78.3	78.6	35	48.4	1	5	315	0.00	29.993 
12:35	77.9	77.9	78.6	38	50.2	1	5	338	0.00	29.993 
12:40	78.1	78.1	78.5	35	48.2	1	4	292	0.00	29.993 
12:45	78.5	78.5	78.7	36	49.3	1	3	292	0.00	29.988 
12:50	79.4	79.4	79.2	36	50.1	0	3	292	0.00	29.988 
12:55	79.8	79.8	79.3	34	48.9	1	4	292	0.00	29.988 
13:00	80.3	80.3	80.1	39	53.1	1	2	292	0.00	29.983 
13:05	80.7	80.7	79.9	34	49.7	1	3	292	0.00	29.983 
13:10	80.9	80.9	80.1	35	50.7	1	4	292	0.00	29.983 
13:15	81.1	81.1	80.3	35	50.8	0	2	292	0.00	29.982 
13:20	80.7	80.7	79.8	33	48.9	1	3	292	0.00	29.982 
13:25	80.7	80.7	79.8	32	48.1	1	2	292	0.00	29.982 
13:30	80.9	80.9	79.7	29	45.6	3	6	292	0.00	29.981 
13:35	80.7	80.7	79.7	31	47.2	2	6	270	0.00	29.981 
13:40	80.9	80.9	79.8	31	47.4	1	3	270	0.00	29.981 
13:45	80.9	80.9	79.8	31	47.4	1	5	315	0.00	29.974 
13:50	80.5	80.5	79.5	30	46.2	2	5	292	0.00	29.974 
13:55	80.3	80.3	79.4	30	46.0	3	7	292	0.00	29.974 
14:00	80.7	80.7	79.7	31	47.2	1	3	292	0.00	29.970 
14:05	81.2	81.2	80.1	32	48.5	2	4	292	0.00	29.970 
14:10	81.6	81.6	80.3	31	48.0	1	5	315	0.00	29.970 
14:15	82.0	82.0	80.6	31	48.4	1	3	315	0.00	29.968 
14:20	82.0	82.0	80.5	30	47.5	3	6	270	0.00	29.968 
14:25	82.4	82.4	80.9	31	48.7	1	4	292	0.00	29.968 
14:30	82.6	82.6	80.9	30	48.0	0	2	292	0.00	29.963 
14:35	82.8	82.8	81.0	29	47.3	1	4	292	0.00	29.963 
14:40	81.8	81.8	80.1	27	44.5	2	4	292	0.00	29.963 
14:45	81.6	81.6	80.3	31	48.0	2	3	292	0.00	29.960 
14:50	82.2	82.2	80.5	28	45.8	1	4	292	0.00	29.960 
14:55	82.6	82.6	80.7	27	45.2	2	4	292	0.00	29.960 
15:00	82.4	82.4	80.7	29	46.9	1	3	292	0.00	29.953 
15:05	82.2	82.2	80.4	27	44.9	1	4	292	0.00	29.953 
15:10	82.2	82.2	80.7	31	48.5	1	3	292	0.00	29.953 
15:15	82.6	82.6	80.7	27	45.2	3	7	292	0.00	29.953 
15:20	82.2	82.2	80.5	28	45.8	2	6	315	0.00	29.953 
15:25	82.2	82.2	80.5	28	45.8	2	4	315	0.00	29.953 
15:30	82.6	82.6	80.8	28	46.2	2	6	292	0.00	29.951 
15:35	82.2	82.2	80.4	27	44.9	1	4	292	0.00	29.951 
15:40	81.6	81.6	80.1	28	45.3	1	3	292	0.00	29.951 
15:45	81.8	81.8	80.3	29	46.4	1	3	292	0.00	29.948 
15:50	82.8	82.8	81.0	29	47.3	1	3	292	0.00	29.948 
15:55	83.6	83.6	81.5	28	47.0	0	2	292	0.00	29.948 
16:00	84.0	84.0	81.7	27	46.4	0	1	292	0.00	29.941 
16:05	84.1	84.1	81.8	27	46.5	0	3	292	0.00	29.941 
16:10	83.6	83.6	81.4	27	46.1	0	1	292	0.00	29.941 
16:15	83.0	83.0	81.1	29	47.4	1	6	292	0.00	29.936 
16:20	82.8	82.8	80.8	27	45.4	1	4	292	0.00	29.936 
16:25	82.2	82.2	80.4	27	44.9	1	5	292	0.00	29.936 
16:30	81.8	81.8	80.3	29	46.4	1	4	292	0.00	29.937 
16:35	81.8	81.8	80.3	30	47.3	1	4	292	0.00	29.937 
16:40	82.2	82.2	80.5	29	46.8	1	3	292	0.00	29.937 
16:45	82.6	82.6	80.8	28	46.2	2	4	315	0.00	29.934 
16:50	82.8	82.8	80.9	28	46.3	1	4	315	0.00	29.934 
16:55	82.4	82.4	80.6	28	46.0	1	3	292	0.00	29.934 
17:00	82.4	82.4	80.6	28	46.0	2	5	292	0.00	29.937 
17:05	82.4	82.4	80.5	27	45.0	1	3	292	0.00	29.937 
17:10	82.8	82.8	80.9	28	46.3	1	5	292	0.00	29.937 
17:15	83.2	83.2	81.1	27	45.7	1	4	292	0.00	29.932 
17:20	83.2	83.2	81.1	27	45.7	1	4	292	0.00	29.932 
17:25	82.6	82.6	80.7	27	45.2	1	5	292	0.00	29.932 
17:30	82.2	82.2	80.4	27	44.9	1	4	292	0.00	29.929 
17:35	82.2	82.2	80.5	28	45.8	1	3	292	0.00	29.929 
17:40	82.2	82.2	80.4	27	44.9	2	4	315	0.00	29.929 
17:45	82.0	82.0	80.4	29	46.6	2	5	292	0.00	29.924 
17:50	81.8	81.8	80.1	27	44.5	1	4	315	0.00	29.924 
17:55	81.8	81.8	80.2	28	45.5	0	4	315	0.00	29.924 
18:00	81.6	81.6	80.1	28	45.3	0	2	315	0.00	29.921 
18:05	81.6	81.6	80.1	28	45.3	1	3	315	0.00	29.921 
18:10	81.6	81.6	80.1	28	45.3	2	3	315	0.00	29.921 
18:15	81.8	81.8	80.4	31	48.2	1	2	315	0.00	29.919 
18:20	81.8	81.8	80.3	30	47.3	0	1	315	0.00	29.919 
18:25	81.8	81.8	80.3	29	46.4	0	2	315	0.00	29.919 
18:30	82.0	82.0	80.5	30	47.5	1	3	315	0.00	29.917 
18:35	82.2	82.2	80.5	28	45.8	1	3	315	0.00	29.917 
18:40	82.2	82.2	80.6	30	47.7	0	1	0	0.00	29.917 
18:45	82.0	82.0	80.3	28	45.7	1	3	292	0.00	29.911 
18:50	81.8	81.8	80.3	29	46.4	0	4	292	0.00	29.911 
18:55	81.8	81.8	80.2	28	45.5	1	4	292	0.00	29.911 
19:00	81.8	81.8	80.2	28	45.5	1	3	292	0.00	29.907 
19:05	81.8	81.8	80.2	28	45.5	1	3	292	0.00	29.907 
19:10	81.6	81.6	80.1	28	45.3	1	5	270	0.00	29.907 
19:15	81.6	81.6	80.0	27	44.4	1	4	270	0.00	29.908 
19:20	81.8	81.8	80.1	27	44.5	1	2	270	0.00	29.908 
19:25	82.0	82.0	80.3	27	44.7	1	4	270	0.00	29.908 
19:30	82.0	82.0	80.3	27	44.7	1	3	292	0.00	29.913 
19:35	82.0	82.0	80.4	29	46.6	1	2	292	0.00	29.913 
19:40	81.8	81.8	80.1	27	44.5	2	4	292	0.00	29.913 
19:45	81.6	81.6	80.1	28	45.3	1	4	292	0.00	29.917 
19:50	81.4	81.4	79.9	28	45.1	1	4	292	0.00	29.917 
19:55	81.2	81.2	79.7	27	44.0	1	3	292	0.00	29.917 
20:00	81.1	81.1	79.7	27	43.9	1	3	292	0.00	29.918 
20:05	81.1	81.1	79.7	27	43.9	1	4	292	0.00	29.918 
20:10	80.9	80.9	79.7	29	45.6	0	2	292	0.00	29.918 
20:15	80.9	80.9	79.6	28	44.7	1	3	292	0.00	29.916 
20:20	80.5	80.5	79.4	28	44.4	1	4	292	0.00	29.916 
20:25	80.3	80.3	79.3	29	45.1	1	2	292	0.00	29.916 
20:30	80.1	80.1	79.2	29	44.9	0	1	292	0.00	29.918 
20:35	79.8	79.8	79.1	30	45.6	0	2	292	0.00	29.918 
20:40	79.4	79.4	78.8	30	45.2	0	2	292	0.00	29.918 
20:45	79.2	79.2	78.8	31	45.9	0	0	---	0.00	29.921 
20:50	78.6	78.6	78.5	32	46.3	0	1	292	0.00	29.921 
20:55	78.1	78.1	78.3	32	45.8	0	1	292	0.00	29.921 
21:00	77.9	77.9	78.3	33	46.5	0	1	292	0.00	29.929 
21:05	77.6	77.6	78.2	34	47.0	0	1	292	0.00	29.929 
21:10	77.0	77.0	78.0	35	47.2	0	1	292	0.00	29.929 
21:15	76.5	76.5	77.8	36	47.5	0	0	---	0.00	29.931 
21:20	76.0	76.0	77.7	37	47.8	0	0	---	0.00	29.931 
21:25	75.4	75.4	77.5	38	48.0	0	0	---	0.00	29.931 
21:30	74.7	74.7	74.7	39	48.1	0	0	---	0.00	29.935 
21:35	74.2	74.2	74.2	40	48.3	0	0	---	0.00	29.935 
21:40	73.9	73.9	73.9	41	48.7	0	0	---	0.00	29.935 
21:45	73.3	73.3	73.3	41	48.2	0	0	---	0.00	29.948 
21:50	73.0	73.0	73.0	42	48.5	0	0	---	0.00	29.948 
21:55	72.5	72.5	72.5	44	49.3	0	0	---	0.00	29.948 
22:00	72.0	72.0	72.0	45	49.5	0	0	---	0.00	29.953 
22:05	71.5	71.5	71.5	45	49.0	0	0	---	0.00	29.953 
22:10	70.9	70.9	70.9	46	49.1	0	0	---	0.00	29.953 
22:15	70.6	70.6	70.6	48	49.9	0	0	---	0.00	29.962 
22:20	70.3	70.3	70.3	48	49.7	0	0	---	0.00	29.962 
22:25	70.1	70.1	70.1	48	49.5	0	0	---	0.00	29.962 
22:30	69.9	69.9	69.9	48	49.3	0	0	---	0.00	29.965 
22:35	69.8	69.8	69.8	49	49.8	0	0	---	0.00	29.965 
22:40	69.4	69.4	69.4	49	49.4	0	0	---	0.00	29.965 
22:45	69.1	69.1	69.1	50	49.7	0	0	---	0.00	29.966 
22:50	68.9	68.9	68.9	50	49.5	0	0	---	0.00	29.966 
22:55	68.6	68.6	68.6	50	49.2	0	1	292	0.00	29.966 
23:00	68.6	68.6	68.6	50	49.2	0	1	292	0.00	29.977 
23:05	68.8	68.8	68.8	50	49.4	0	1	292	0.00	29.977 
23:10	68.8	68.8	68.8	49	48.8	0	1	292	0.00	29.977 
23:15	68.8	68.8	68.8	50	49.4	0	1	292	0.00	29.982 
23:20	68.6	68.6	68.6	50	49.2	0	1	292	0.00	29.982 
23:25	68.4	68.4	68.4	50	49.0	0	1	292	0.00	29.982 
23:30	68.3	68.3	68.3	50	48.9	0	0	---	0.00	29.983 
23:35	68.1	68.1	68.1	50	48.7	0	0	---	0.00	29.983 
23:40	67.8	67.8	67.8	51	49.0	0	0	---	0.00	29.983 
23:45	67.4	67.4	67.4	51	48.6	0	0	---	0.00	29.985 
23:50	67.1	67.1	67.1	52	48.9	0	0	---	0.00	29.985 
23:55	66.8	66.8	66.8	52	48.6	0	0	---	0.00	29.985 

CoCoRaHS
IN-AL-39
A2 Web Hosting
Creative Commons License
GoDaddy
search engine by freefind advanced

loaded 2018-11-13 02:17:04 • last modified 2010-11-18 10:43:29
Privacy PolicyDisclaimer
• wx.awcolley.com is powered by PmWiki v.2002016 •
• all content (unless otherwise noted) © 2018 A W Colley